createdAt,value
2023-04-23T00:01:29.179Z,11.55
2023-04-23T00:06:34.725Z,10.13
2023-04-23T00:11:39.021Z,11.40
2023-04-23T00:16:43.497Z,11.55
2023-04-23T00:21:47.618Z,15.38
2023-04-23T00:26:53.982Z,22.15
2023-04-23T00:31:59.199Z,30.40
2023-04-23T00:37:07.108Z,41.40
2023-04-23T00:42:13.131Z,20.50
2023-04-23T00:47:19.083Z,13.85
2023-04-23T00:52:23.480Z,12.60
2023-04-23T00:57:28.387Z,10.88
2023-04-23T01:02:32.978Z,15.38
2023-04-23T01:07:38.642Z,15.82
2023-04-23T01:12:42.584Z,16.45
2023-04-23T01:17:47.231Z,12.88
2023-04-23T01:22:54.851Z,10.82
2023-04-23T01:27:59.468Z,12.98
2023-04-23T01:33:06.312Z,6.90
2023-04-23T01:38:12.678Z,6.45
2023-04-23T01:43:18.222Z,7.47
2023-04-23T01:48:22.555Z,6.15
2023-04-23T01:53:26.662Z,5.95
2023-04-23T01:58:30.685Z,5.78
2023-04-23T02:03:35.484Z,6.25
2023-04-23T02:08:40.699Z,6.07
2023-04-23T02:13:44.724Z,5.70
2023-04-23T02:18:48.681Z,5.95
2023-04-23T02:23:54.362Z,6.60
2023-04-23T02:28:58.339Z,6.15
2023-04-23T02:34:02.513Z,6.13
2023-04-23T02:39:07.285Z,6.15
2023-04-23T02:44:11.423Z,6.22
2023-04-23T02:49:15.527Z,6.10
2023-04-23T02:54:19.727Z,6.03
2023-04-23T02:59:24.116Z,5.60
2023-04-23T03:04:28.475Z,5.25
2023-04-23T03:09:32.917Z,6.18
2023-04-23T03:14:37.198Z,5.80
2023-04-23T03:19:41.945Z,5.53
2023-04-23T03:24:46.844Z,5.00
2023-04-23T03:30:10.681Z,5.38
2023-04-23T03:35:14.849Z,5.30
2023-04-23T03:40:22.849Z,5.78
2023-04-23T03:45:31.984Z,5.85
2023-04-23T03:50:39.706Z,6.22
2023-04-23T03:56:01.164Z,6.07
2023-04-23T04:01:08.435Z,6.63
2023-04-23T04:06:12.844Z,6.25
2023-04-23T04:11:17.013Z,6.38
2023-04-23T04:16:21.020Z,5.25
2023-04-23T04:21:25.117Z,6.20
2023-04-23T04:26:30.264Z,6.55
2023-04-23T04:31:35.612Z,6.07
2023-04-23T04:36:40.062Z,5.45
2023-04-23T04:41:44.378Z,5.40
2023-04-23T04:46:48.943Z,5.18
2023-04-23T04:51:54.938Z,5.35
2023-04-23T04:56:58.820Z,5.07
2023-04-23T05:02:02.820Z,4.97
2023-04-23T05:07:06.908Z,4.93
2023-04-23T05:12:10.846Z,4.88
2023-04-23T05:17:14.768Z,5.00
2023-04-23T05:22:18.917Z,4.38
2023-04-23T05:27:23.062Z,4.80
2023-04-23T05:32:27.362Z,4.43
2023-04-23T05:37:31.743Z,6.13
2023-04-23T05:42:37.691Z,5.10
2023-04-23T05:47:41.928Z,4.97
2023-04-23T05:52:46.227Z,5.38
2023-04-23T05:57:50.242Z,5.63
2023-04-23T06:02:54.719Z,5.05
2023-04-23T06:07:59.439Z,5.20
2023-04-23T06:13:03.787Z,4.70
2023-04-23T06:18:08.051Z,4.82
2023-04-23T06:23:14.265Z,5.90
2023-04-23T06:28:18.181Z,5.25
2023-04-23T06:33:48.009Z,5.30
2023-04-23T06:38:52.224Z,5.43
2023-04-23T06:43:56.622Z,5.30
2023-04-23T06:49:13.282Z,5.30
2023-04-23T06:54:17.328Z,5.10
2023-04-23T06:59:21.492Z,5.50
2023-04-23T07:04:29.672Z,5.18
2023-04-23T07:09:33.823Z,5.13
2023-04-23T07:14:37.866Z,5.53
2023-04-23T07:19:41.720Z,5.57
2023-04-23T07:24:45.910Z,6.70
2023-04-23T07:29:49.859Z,5.68
2023-04-23T07:34:53.921Z,5.35
2023-04-23T07:39:58.173Z,5.32
2023-04-23T07:45:02.386Z,5.32
2023-04-23T07:50:08.984Z,4.95
2023-04-23T07:55:12.805Z,5.45
2023-04-23T08:00:17.197Z,5.85
2023-04-23T08:05:21.282Z,5.93
2023-04-23T08:10:25.468Z,5.43
2023-04-23T08:15:29.486Z,5.68
2023-04-23T08:20:33.728Z,5.72
2023-04-23T08:25:37.787Z,6.28
2023-04-23T08:30:41.885Z,6.05
2023-04-23T08:35:45.875Z,5.80
2023-04-23T08:40:52.284Z,5.82
2023-04-23T08:45:57.388Z,5.90
2023-04-23T08:51:04.835Z,6.03
2023-04-23T08:56:09.473Z,5.72
2023-04-23T09:01:15.461Z,6.10
2023-04-23T09:06:21.445Z,5.93
2023-04-23T09:11:28.065Z,5.57
2023-04-23T09:16:32.268Z,5.22
2023-04-23T09:21:40.703Z,6.35
2023-04-23T09:26:53.231Z,5.32
2023-04-23T09:32:03.855Z,5.80
2023-04-23T09:37:12.721Z,5.97
2023-04-23T09:42:17.242Z,5.35
2023-04-23T09:47:22.596Z,5.50
2023-04-23T09:52:30.243Z,5.55
2023-04-23T09:57:42.112Z,6.05
2023-04-23T10:02:50.773Z,5.85
2023-04-23T10:07:56.024Z,5.95
2023-04-23T10:13:01.105Z,5.80
2023-04-23T10:18:08.676Z,6.32
2023-04-23T10:23:13.792Z,6.85
2023-04-23T10:28:27.447Z,6.78
2023-04-23T10:33:37.650Z,7.40
2023-04-23T10:38:57.959Z,7.70
2023-04-23T10:44:07.965Z,6.93
2023-04-23T10:49:15.666Z,6.80
2023-04-23T10:54:21.028Z,7.22
2023-04-23T10:59:25.868Z,7.80
2023-04-23T11:04:31.122Z,7.30
2023-04-23T11:10:00.477Z,6.40
2023-04-23T11:15:20.165Z,6.18
2023-04-23T11:20:25.243Z,6.30
2023-04-23T11:25:31.147Z,6.03
2023-04-23T11:30:35.289Z,6.50
2023-04-23T11:35:41.971Z,5.90
2023-04-23T11:40:49.462Z,6.45
2023-04-23T11:45:53.663Z,5.88
2023-04-23T11:50:58.072Z,6.10
2023-04-23T11:56:02.030Z,6.13
2023-04-23T12:01:06.182Z,5.97
2023-04-23T12:06:10.277Z,5.85
2023-04-23T12:11:14.702Z,6.20
2023-04-23T12:16:18.782Z,6.60
2023-04-23T12:21:24.720Z,5.55
2023-04-23T12:26:30.440Z,6.15
2023-04-23T12:31:34.798Z,5.95
2023-04-23T12:36:41.637Z,5.57
2023-04-23T12:41:45.996Z,5.80
2023-04-23T12:47:04.093Z,6.05
2023-04-23T12:52:12.099Z,5.60
2023-04-23T12:57:22.487Z,5.90
2023-04-23T13:02:27.098Z,6.20
2023-04-23T13:07:31.164Z,5.97
2023-04-23T13:12:35.349Z,6.03
2023-04-23T13:17:39.718Z,5.57
2023-04-23T13:22:43.784Z,5.60
2023-04-23T13:27:47.879Z,5.07
2023-04-23T13:32:51.848Z,5.65
2023-04-23T13:37:56.173Z,5.07
2023-04-23T13:43:00.133Z,4.22
2023-04-23T13:48:05.888Z,4.18
2023-04-23T13:53:11.653Z,5.18
2023-04-23T13:58:15.936Z,6.05
2023-04-23T14:03:21.061Z,6.57
2023-04-23T14:08:25.175Z,7.07
2023-04-23T14:13:29.345Z,7.95
2023-04-23T14:18:33.621Z,6.88
2023-04-23T14:23:37.860Z,6.18
2023-04-23T14:28:49.130Z,6.32
2023-04-23T14:33:53.129Z,5.60
2023-04-23T14:39:00.007Z,5.88
2023-04-23T14:44:04.607Z,6.15
2023-04-23T14:49:08.672Z,6.10
2023-04-23T14:54:12.795Z,6.05
2023-04-23T14:59:16.904Z,5.85
2023-04-23T15:04:21.156Z,5.28
2023-04-23T15:09:25.838Z,6.50
2023-04-23T15:14:37.653Z,28.00
2023-04-23T15:19:41.831Z,34.03
2023-04-23T15:24:45.966Z,7.97
2023-04-23T15:29:50.002Z,5.93
2023-04-23T15:34:54.483Z,6.25
2023-04-23T15:39:59.238Z,8.13
2023-04-23T15:45:04.781Z,8.80
2023-04-23T15:50:10.900Z,5.82
2023-04-23T15:55:15.002Z,7.28
2023-04-23T16:00:19.911Z,7.53
2023-04-23T16:05:25.795Z,7.65
2023-04-23T16:10:32.391Z,7.40
2023-04-23T16:15:37.215Z,7.63
2023-04-23T16:20:41.856Z,7.63
2023-04-23T16:25:46.064Z,7.47
2023-04-23T16:30:50.004Z,6.47
2023-04-23T16:35:54.877Z,7.35
2023-04-23T16:40:59.188Z,7.25
2023-04-23T16:46:03.090Z,6.45
2023-04-23T16:51:07.191Z,6.60
2023-04-23T16:56:11.582Z,6.05
2023-04-23T17:01:18.493Z,7.03
2023-04-23T17:06:31.298Z,7.20
2023-04-23T17:11:35.925Z,7.38
2023-04-23T17:16:40.004Z,7.85
2023-04-23T17:21:44.248Z,7.03
2023-04-23T17:26:48.893Z,7.20
2023-04-23T17:31:52.987Z,6.53
2023-04-23T17:36:57.582Z,6.07
2023-04-23T17:42:02.819Z,6.35
2023-04-23T17:47:06.969Z,6.15
2023-04-23T17:52:11.175Z,6.13
2023-04-23T17:57:15.386Z,5.20
2023-04-23T18:02:19.631Z,6.07
2023-04-23T18:07:23.790Z,5.75
2023-04-23T18:12:29.471Z,4.80
2023-04-23T18:17:33.293Z,5.38
2023-04-23T18:22:39.000Z,4.90
2023-04-23T18:27:42.842Z,4.95
2023-04-23T18:32:56.440Z,5.57
2023-04-23T18:38:11.127Z,4.60
2023-04-23T18:43:15.216Z,4.20
2023-04-23T18:48:42.486Z,3.83
2023-04-23T18:53:47.654Z,3.67
2023-04-23T18:58:51.807Z,3.75
2023-04-23T19:03:57.407Z,3.97
2023-04-23T19:09:02.148Z,3.60
2023-04-23T19:14:06.378Z,3.20
2023-04-23T19:19:10.286Z,3.42
2023-04-23T19:24:14.313Z,3.47
2023-04-23T19:29:18.497Z,3.30
2023-04-23T19:34:22.632Z,3.83
2023-04-23T19:39:27.757Z,3.92
2023-04-23T19:44:31.775Z,3.38
2023-04-23T19:49:35.850Z,4.15
2023-04-23T19:54:39.798Z,3.42
2023-04-23T19:59:44.201Z,3.50
2023-04-23T20:04:48.294Z,3.78
2023-04-23T20:09:52.412Z,3.50
2023-04-23T20:14:56.958Z,3.47
2023-04-23T20:20:02.554Z,3.88
2023-04-23T20:25:08.857Z,4.00
2023-04-23T20:30:15.868Z,3.50
2023-04-23T20:35:19.816Z,3.58
2023-04-23T20:40:24.102Z,3.72
2023-04-23T20:45:28.610Z,3.70
2023-04-23T20:50:32.550Z,3.78
2023-04-23T20:55:37.711Z,4.10
2023-04-23T21:00:42.515Z,4.85
2023-04-23T21:05:46.524Z,3.50
2023-04-23T21:10:50.707Z,4.07
2023-04-23T21:15:54.819Z,3.17
2023-04-23T21:20:59.041Z,3.50
2023-04-23T21:26:03.261Z,3.80
2023-04-23T21:31:15.040Z,3.70
2023-04-23T21:36:19.072Z,3.60
2023-04-23T21:41:23.035Z,3.65
2023-04-23T21:46:27.609Z,4.20
2023-04-23T21:51:31.625Z,3.60
2023-04-23T21:56:36.375Z,3.90
2023-04-23T22:01:40.346Z,3.42
2023-04-23T22:06:45.158Z,3.28
2023-04-23T22:12:00.987Z,4.10
2023-04-23T22:17:08.310Z,3.40
2023-04-23T22:22:12.270Z,4.85
2023-04-23T22:27:16.454Z,3.90
2023-04-23T22:32:20.396Z,4.18
2023-04-23T22:37:25.008Z,3.67
2023-04-23T22:42:29.197Z,3.78
2023-04-23T22:47:33.711Z,3.65
2023-04-23T22:52:37.661Z,3.22
2023-04-23T22:57:41.587Z,4.32
2023-04-23T23:02:45.867Z,3.75
2023-04-23T23:07:50.014Z,3.35
2023-04-23T23:12:54.217Z,3.63
2023-04-23T23:17:58.508Z,3.47
2023-04-23T23:23:02.502Z,3.80
2023-04-23T23:28:06.731Z,3.50
2023-04-23T23:33:10.791Z,3.95
2023-04-23T23:38:14.812Z,3.55
2023-04-23T23:43:18.992Z,3.85
2023-04-23T23:48:23.057Z,4.13
2023-04-23T23:53:27.334Z,3.85
2023-04-23T23:58:31.442Z,3.85
